sensor_id;sensor_type;location;lat;lon;timestamp;pressure;altitude;pressure_sealevel;temperature;humidity
70314;BME280;57725;47.526;18.986;2022-09-09T00:02:38;99491.44;;;20.93;83.36
70314;BME280;57725;47.526;18.986;2022-09-09T00:07:44;99496.03;;;20.91;83.57
70314;BME280;57725;47.526;18.986;2022-09-09T00:10:28;99493.53;;;20.89;83.45
70314;BME280;57725;47.526;18.986;2022-09-09T00:19:17;99488.50;;;20.86;83.45
70314;BME280;57725;47.526;18.986;2022-09-09T00:21:33;99496.34;;;20.88;83.35
70314;BME280;57725;47.526;18.986;2022-09-09T00:24:11;99495.66;;;20.86;83.31
70314;BME280;57725;47.526;18.986;2022-09-09T00:26:51;99493.97;;;20.85;83.27
70314;BME280;57725;47.526;18.986;2022-09-09T00:29:27;99496.63;;;20.85;83.75
70314;BME280;57725;47.526;18.986;2022-09-09T00:31:57;99494.94;;;20.84;83.64
70314;BME280;57725;47.526;18.986;2022-09-09T00:34:26;99497.72;;;20.82;83.78
70314;BME280;57725;47.526;18.986;2022-09-09T00:36:56;99494.09;;;20.83;83.41
70314;BME280;57725;47.526;18.986;2022-09-09T00:39:42;99506.53;;;20.83;83.35
70314;BME280;57725;47.526;18.986;2022-09-09T00:42:15;99506.53;;;20.83;83.49
70314;BME280;57725;47.526;18.986;2022-09-09T00:45:17;99504.88;;;20.82;83.44
70314;BME280;57725;47.526;18.986;2022-09-09T00:47:50;99504.03;;;20.81;83.42
70314;BME280;57725;47.526;18.986;2022-09-09T00:52:53;99497.88;;;20.81;83.50
70314;BME280;57725;47.526;18.986;2022-09-09T00:58:13;99498.13;;;20.78;83.48
70314;BME280;57725;47.526;18.986;2022-09-09T01:00:45;99491.00;;;20.78;83.29
70314;BME280;57725;47.526;18.986;2022-09-09T01:03:38;99498.13;;;20.78;83.29
70314;BME280;57725;47.526;18.986;2022-09-09T01:11:45;99529.16;;;20.77;83.64
70314;BME280;57725;47.526;18.986;2022-09-09T01:16:59;99530.19;;;20.76;83.60
70314;BME280;57725;47.526;18.986;2022-09-09T01:20:26;99524.88;;;20.76;83.72
70314;BME280;57725;47.526;18.986;2022-09-09T01:27:57;99541.22;;;20.72;83.58
70314;BME280;57725;47.526;18.986;2022-09-09T01:30:24;99544.72;;;20.72;83.72
70314;BME280;57725;47.526;18.986;2022-09-09T01:32:55;99542.06;;;20.72;83.43
70314;BME280;57725;47.526;18.986;2022-09-09T01:37:58;99544.00;;;20.70;83.62
70314;BME280;57725;47.526;18.986;2022-09-09T01:40:26;99545.81;;;20.70;83.73
70314;BME280;57725;47.526;18.986;2022-09-09T01:42:52;99542.31;;;20.69;83.43
70314;BME280;57725;47.526;18.986;2022-09-09T01:45:18;99540.63;;;20.68;83.65
70314;BME280;57725;47.526;18.986;2022-09-09T01:47:47;99537.84;;;20.70;83.60
70314;BME280;57725;47.526;18.986;2022-09-09T01:50:15;99544.00;;;20.70;83.27
70314;BME280;57725;47.526;18.986;2022-09-09T01:52:42;99545.94;;;20.68;83.77
70314;BME280;57725;47.526;18.986;2022-09-09T01:55:09;99545.94;;;20.68;83.37
70314;BME280;57725;47.526;18.986;2022-09-09T02:00:16;99550.56;;;20.66;83.62
70314;BME280;57725;47.526;18.986;2022-09-09T02:10:20;99543.72;;;20.64;83.92
70314;BME280;57725;47.526;18.986;2022-09-09T02:12:55;99550.00;;;20.63;83.72
70314;BME280;57725;47.526;18.986;2022-09-09T02:15:31;99546.38;;;20.64;83.66
70314;BME280;57725;47.526;18.986;2022-09-09T02:17:58;99540.34;;;20.62;83.61
70314;BME280;57725;47.526;18.986;2022-09-09T02:20:27;99539.53;;;20.61;83.50
70314;BME280;57725;47.526;18.986;2022-09-09T02:22:57;99534.34;;;20.59;83.61
70314;BME280;57725;47.526;18.986;2022-09-09T02:25:30;99539.53;;;20.61;83.40
70314;BME280;57725;47.526;18.986;2022-09-09T02:27:58;99535.19;;;20.60;83.71
70314;BME280;57725;47.526;18.986;2022-09-09T02:30:30;99530.00;;;20.58;83.94
70314;BME280;57725;47.526;18.986;2022-09-09T02:32:58;99532.66;;;20.58;83.60
70314;BME280;57725;47.526;18.986;2022-09-09T02:35:28;99523.84;;;20.58;84.02
70314;BME280;57725;47.526;18.986;2022-09-09T02:37:59;99531.81;;;20.58;83.97
70314;BME280;57725;47.526;18.986;2022-09-09T02:40:27;99531.81;;;20.58;84.15
70314;BME280;57725;47.526;18.986;2022-09-09T02:42:57;99533.75;;;20.56;84.13
70314;BME280;57725;47.526;18.986;2022-09-09T02:45:41;99536.28;;;20.57;83.79
70314;BME280;57725;47.526;18.986;2022-09-09T02:48:14;99540.03;;;20.55;83.86
70314;BME280;57725;47.526;18.986;2022-09-09T02:51:03;99533.75;;;20.56;83.83
70314;BME280;57725;47.526;18.986;2022-09-09T02:53:50;99536.56;;;20.54;84.16
70314;BME280;57725;47.526;18.986;2022-09-09T02:56:21;99535.88;;;20.52;84.07
70314;BME280;57725;47.526;18.986;2022-09-09T02:58:48;99532.38;;;20.52;83.71
70314;BME280;57725;47.526;18.986;2022-09-09T03:01:17;99535.03;;;20.52;83.58
70314;BME280;57725;47.526;18.986;2022-09-09T03:03:45;99527.91;;;20.52;83.72
70314;BME280;57725;47.526;18.986;2022-09-09T03:06:13;99530.69;;;20.51;83.76
70314;BME280;57725;47.526;18.986;2022-09-09T03:08:39;99530.84;;;20.49;83.81
70314;BME280;57725;47.526;18.986;2022-09-09T03:11:07;99534.47;;;20.48;83.87
70314;BME280;57725;47.526;18.986;2022-09-09T03:13:35;99536.13;;;20.49;83.55
70314;BME280;57725;47.526;18.986;2022-09-09T03:16:03;99548.56;;;20.49;83.81
70314;BME280;57725;47.526;18.986;2022-09-09T03:18:31;99549.41;;;20.49;83.84
70314;BME280;57725;47.526;18.986;2022-09-09T03:20:59;99549.56;;;20.48;84.06
70314;BME280;57725;47.526;18.986;2022-09-09T03:23:25;99553.88;;;20.49;84.23
70314;BME280;57725;47.526;18.986;2022-09-09T03:25:50;99553.88;;;20.49;83.63
70314;BME280;57725;47.526;18.986;2022-09-09T03:28:17;99545.06;;;20.48;83.86
70314;BME280;57725;47.526;18.986;2022-09-09T03:30:42;99556.66;;;20.47;83.95
70314;BME280;57725;47.526;18.986;2022-09-09T03:33:08;99553.03;;;20.48;83.92
70314;BME280;57725;47.526;18.986;2022-09-09T03:35:33;99558.34;;;20.48;83.63
70314;BME280;57725;47.526;18.986;2022-09-09T03:38:01;99552.34;;;20.46;83.87
70314;BME280;57725;47.526;18.986;2022-09-09T03:40:26;99552.47;;;20.45;84.16
70314;BME280;57725;47.526;18.986;2022-09-09T03:42:52;99553.31;;;20.45;83.70
70314;BME280;57725;47.526;18.986;2022-09-09T03:45:19;99553.31;;;20.45;83.66
70314;BME280;57725;47.526;18.986;2022-09-09T03:47:45;99554.28;;;20.44;83.67
70314;BME280;57725;47.526;18.986;2022-09-09T03:50:12;99551.63;;;20.44;84.02
70314;BME280;57725;47.526;18.986;2022-09-09T03:52:39;99561.53;;;20.42;84.01
70314;BME280;57725;47.526;18.986;2022-09-09T03:55:06;99565.88;;;20.43;83.59
70314;BME280;57725;47.526;18.986;2022-09-09T03:57:35;99558.75;;;20.44;83.58
70314;BME280;57725;47.526;18.986;2022-09-09T04:00:06;99557.91;;;20.43;84.11
70314;BME280;57725;47.526;18.986;2022-09-09T04:02:32;99558.88;;;20.42;84.07
70314;BME280;57725;47.526;18.986;2022-09-09T04:04:57;99565.19;;;20.41;83.72
70314;BME280;57725;47.526;18.986;2022-09-09T04:07:25;99571.34;;;20.42;84.02
70314;BME280;57725;47.526;18.986;2022-09-09T04:09:52;99568.81;;;20.40;83.74
70314;BME280;57725;47.526;18.986;2022-09-09T04:12:20;99564.47;;;20.39;83.74
70314;BME280;57725;47.526;18.986;2022-09-09T04:14:47;99561.81;;;20.39;83.96
70314;BME280;57725;47.526;18.986;2022-09-09T04:17:15;99567.28;;;20.38;83.73
70314;BME280;57725;47.526;18.986;2022-09-09T04:19:41;99565.47;;;20.38;83.57
70314;BME280;57725;47.526;18.986;2022-09-09T04:22:07;99571.47;;;20.40;83.95
70314;BME280;57725;47.526;18.986;2022-09-09T04:24:34;99570.75;;;20.38;83.86
70314;BME280;57725;47.526;18.986;2022-09-09T04:27:06;99564.63;;;20.38;83.54
70314;BME280;57725;47.526;18.986;2022-09-09T04:29:38;99560.28;;;20.37;83.94
70314;BME280;57725;47.526;18.986;2022-09-09T04:32:12;99567.41;;;20.36;83.48
70314;BME280;57725;47.526;18.986;2022-09-09T04:34:38;99568.38;;;20.35;83.86
70314;BME280;57725;47.526;18.986;2022-09-09T04:37:03;99571.03;;;20.35;83.96
70314;BME280;57725;47.526;18.986;2022-09-09T04:39:31;99562.19;;;20.35;83.89
70314;BME280;57725;47.526;18.986;2022-09-09T04:41:56;99570.16;;;20.35;83.57
70314;BME280;57725;47.526;18.986;2022-09-09T04:44:21;99562.19;;;20.35;83.65
70314;BME280;57725;47.526;18.986;2022-09-09T04:46:49;99555.94;;;20.36;84.02
70314;BME280;57725;47.526;18.986;2022-09-09T04:49:14;99548.91;;;20.35;83.78
70314;BME280;57725;47.526;18.986;2022-09-09T04:51:40;99543.88;;;20.32;83.71
70314;BME280;57725;47.526;18.986;2022-09-09T04:54:05;99554.66;;;20.30;83.75
70314;BME280;57725;47.526;18.986;2022-09-09T04:56:33;99558.13;;;20.31;83.76
70314;BME280;57725;47.526;18.986;2022-09-09T04:58:58;99557.31;;;20.30;84.08
70314;BME280;57725;47.526;18.986;2022-09-09T05:01:24;99561.91;;;20.28;83.61
70314;BME280;57725;47.526;18.986;2022-09-09T05:03:51;99568.91;;;20.29;83.40
70314;BME280;57725;47.526;18.986;2022-09-09T05:06:21;99579.50;;;20.29;83.76
70314;BME280;57725;47.526;18.986;2022-09-09T05:08:47;99578.66;;;20.29;83.59
70314;BME280;57725;47.526;18.986;2022-09-09T05:13:43;99583.28;;;20.27;83.75
70314;BME280;57725;47.526;18.986;2022-09-09T05:16:08;99586.75;;;20.27;84.09
70314;BME280;57725;47.526;18.986;2022-09-09T05:18:36;99593.03;;;20.26;83.62
70314;BME280;57725;47.526;18.986;2022-09-09T05:21:02;99591.22;;;20.27;83.76
70314;BME280;57725;47.526;18.986;2022-09-09T05:23:35;99585.91;;;20.27;83.63
70314;BME280;57725;47.526;18.986;2022-09-09T05:26:04;99583.28;;;20.27;83.79
70314;BME280;57725;47.526;18.986;2022-09-09T05:28:31;99590.38;;;20.26;83.81
70314;BME280;57725;47.526;18.986;2022-09-09T05:31:07;99592.19;;;20.25;83.81
70314;BME280;57725;47.526;18.986;2022-09-09T05:33:38;99593.19;;;20.24;83.55
70314;BME280;57725;47.526;18.986;2022-09-09T05:36:15;99584.25;;;20.25;84.12
70314;BME280;57725;47.526;18.986;2022-09-09T05:38:42;99590.53;;;20.24;83.94
70314;BME280;57725;47.526;18.986;2022-09-09T05:41:08;99592.19;;;20.25;83.90
70314;BME280;57725;47.526;18.986;2022-09-09T05:43:37;99585.34;;;20.23;83.73
70314;BME280;57725;47.526;18.986;2022-09-09T05:46:11;99587.28;;;20.21;83.79
70314;BME280;57725;47.526;18.986;2022-09-09T05:48:41;99579.31;;;20.21;83.93
70314;BME280;57725;47.526;18.986;2022-09-09T05:51:12;99582.94;;;20.20;84.25
70314;BME280;57725;47.526;18.986;2022-09-09T05:53:41;99585.59;;;20.20;83.76
70314;BME280;57725;47.526;18.986;2022-09-09T05:56:14;99581.28;;;20.19;84.15
70314;BME280;57725;47.526;18.986;2022-09-09T05:58:40;99583.78;;;20.20;83.58
70314;BME280;57725;47.526;18.986;2022-09-09T06:01:06;99579.44;;;20.19;83.71
70314;BME280;57725;47.526;18.986;2022-09-09T06:03:37;99581.28;;;20.19;84.06
70314;BME280;57725;47.526;18.986;2022-09-09T06:06:05;99579.59;;;20.18;83.71
70314;BME280;57725;47.526;18.986;2022-09-09T06:08:31;99584.91;;;20.18;83.87
70314;BME280;57725;47.526;18.986;2022-09-09T06:11:04;99589.25;;;20.19;83.93
70314;BME280;57725;47.526;18.986;2022-09-09T06:13:35;99585.75;;;20.18;84.05
70314;BME280;57725;47.526;18.986;2022-09-09T06:16:05;99581.28;;;20.19;84.08
70314;BME280;57725;47.526;18.986;2022-09-09T06:18:32;99587.41;;;20.19;84.04
70314;BME280;57725;47.526;18.986;2022-09-09T06:21:00;99592.59;;;20.21;83.79
70314;BME280;57725;47.526;18.986;2022-09-09T06:23:28;99589.94;;;20.21;83.96
70314;BME280;57725;47.526;18.986;2022-09-09T06:26:15;99591.50;;;20.23;84.00
70314;BME280;57725;47.526;18.986;2022-09-09T06:28:42;99596.81;;;20.23;84.06
70314;BME280;57725;47.526;18.986;2022-09-09T06:31:17;99600.28;;;20.24;83.83
70314;BME280;57725;47.526;18.986;2022-09-09T06:33:51;99597.50;;;20.25;83.76
70314;BME280;57725;47.526;18.986;2022-09-09T06:36:22;99599.44;;;20.23;83.85
70314;BME280;57725;47.526;18.986;2022-09-09T06:38:50;99594.00;;;20.25;84.23
70314;BME280;57725;47.526;18.986;2022-09-09T06:41:18;99598.34;;;20.26;84.08
70314;BME280;57725;47.526;18.986;2022-09-09T06:43:46;99599.19;;;20.27;84.02
70314;BME280;57725;47.526;18.986;2022-09-09T06:46:16;99594.97;;;20.24;84.14
70314;BME280;57725;47.526;18.986;2022-09-09T06:48:45;99605.47;;;20.25;84.05
70314;BME280;57725;47.526;18.986;2022-09-09T06:51:16;99593.19;;;20.24;84.30
70314;BME280;57725;47.526;18.986;2022-09-09T06:53:43;99601.97;;;20.25;84.12
70314;BME280;57725;47.526;18.986;2022-09-09T06:58:37;99613.69;;;20.22;84.14
70314;BME280;57725;47.526;18.986;2022-09-09T07:01:08;99611.03;;;20.22;84.15
70314;BME280;57725;47.526;18.986;2022-09-09T07:03:35;99604.03;;;20.21;84.24
70314;BME280;57725;47.526;18.986;2022-09-09T07:06:05;99614.78;;;20.20;84.49
70314;BME280;57725;47.526;18.986;2022-09-09T07:08:31;99615.63;;;20.20;84.33
70314;BME280;57725;47.526;18.986;2022-09-09T07:11:04;99620.25;;;20.18;84.45
70314;BME280;57725;47.526;18.986;2022-09-09T07:13:30;99625.56;;;20.18;84.35
70314;BME280;57725;47.526;18.986;2022-09-09T07:16:06;99622.06;;;20.18;84.07
70314;BME280;57725;47.526;18.986;2022-09-09T07:18:34;99625.69;;;20.17;84.22
70314;BME280;57725;47.526;18.986;2022-09-09T07:21:00;99620.38;;;20.17;84.39
70314;BME280;57725;47.526;18.986;2022-09-09T07:23:31;99616.91;;;20.16;84.05
70314;BME280;57725;47.526;18.986;2022-09-09T07:25:57;99615.09;;;20.17;84.23
70314;BME280;57725;47.526;18.986;2022-09-09T07:28:23;99624.97;;;20.15;84.23
70314;BME280;57725;47.526;18.986;2022-09-09T07:33:23;99620.50;;;20.15;84.32
70314;BME280;57725;47.526;18.986;2022-09-09T07:35:52;99619.56;;;20.16;84.48
70314;BME280;57725;47.526;18.986;2022-09-09T07:38:18;99624.97;;;20.15;84.42
70314;BME280;57725;47.526;18.986;2022-09-09T07:40:44;99631.25;;;20.14;84.30
70314;BME280;57725;47.526;18.986;2022-09-09T07:43:10;99631.25;;;20.14;84.36
70314;BME280;57725;47.526;18.986;2022-09-09T07:45:36;99628.47;;;20.15;84.31
70314;BME280;57725;47.526;18.986;2022-09-09T07:48:01;99638.13;;;20.16;84.29
70314;BME280;57725;47.526;18.986;2022-09-09T07:50:30;99632.94;;;20.15;84.12
70314;BME280;57725;47.526;18.986;2022-09-09T07:52:55;99632.09;;;20.14;84.32
70314;BME280;57725;47.526;18.986;2022-09-09T07:55:24;99626.78;;;20.14;84.43
70314;BME280;57725;47.526;18.986;2022-09-09T07:57:53;99629.69;;;20.11;84.53
70314;BME280;57725;47.526;18.986;2022-09-09T08:00:23;99625.97;;;20.14;84.37
70314;BME280;57725;47.526;18.986;2022-09-09T08:02:49;99627.75;;;20.13;84.14
70314;BME280;57725;47.526;18.986;2022-09-09T08:05:16;99629.44;;;20.14;84.19
70314;BME280;57725;47.526;18.986;2022-09-09T08:07:44;99627.63;;;20.15;84.27
70314;BME280;57725;47.526;18.986;2022-09-09T08:10:12;99632.94;;;20.15;84.04
70314;BME280;57725;47.526;18.986;2022-09-09T08:12:39;99632.09;;;20.14;84.10
70314;BME280;57725;47.526;18.986;2022-09-09T08:15:07;99628.59;;;20.14;84.44
70314;BME280;57725;47.526;18.986;2022-09-09T08:17:33;99627.75;;;20.13;84.29
70314;BME280;57725;47.526;18.986;2022-09-09T08:19:58;99619.69;;;20.15;84.39
70314;BME280;57725;47.526;18.986;2022-09-09T08:22:30;99628.47;;;20.15;84.11
70314;BME280;57725;47.526;18.986;2022-09-09T08:24:56;99621.50;;;20.14;83.95
70314;BME280;57725;47.526;18.986;2022-09-09T08:27:21;99626.91;;;20.13;84.35
70314;BME280;57725;47.526;18.986;2022-09-09T08:29:47;99625.97;;;20.14;84.17
70314;BME280;57725;47.526;18.986;2022-09-09T08:32:15;99630.41;;;20.13;84.23
70314;BME280;57725;47.526;18.986;2022-09-09T08:34:41;99628.75;;;20.12;83.92
70314;BME280;57725;47.526;18.986;2022-09-09T08:37:07;99626.91;;;20.13;84.44
70314;BME280;57725;47.526;18.986;2022-09-09T08:39:34;99628.59;;;20.14;84.19
70314;BME280;57725;47.526;18.986;2022-09-09T08:42:30;99637.53;;;20.13;84.17
70314;BME280;57725;47.526;18.986;2022-09-09T08:50:35;99635.59;;;20.15;84.05
70314;BME280;57725;47.526;18.986;2022-09-09T08:53:27;99640.06;;;20.14;84.21
70314;BME280;57725;47.526;18.986;2022-09-09T08:55:58;99640.06;;;20.14;83.92
70314;BME280;57725;47.526;18.986;2022-09-09T08:58:29;99636.56;;;20.14;84.17
70314;BME280;57725;47.526;18.986;2022-09-09T09:01:09;99641.88;;;20.14;84.08
70314;BME280;57725;47.526;18.986;2022-09-09T09:11:55;99631.13;;;20.15;83.91
70314;BME280;57725;47.526;18.986;2022-09-09T09:14:27;99627.63;;;20.15;83.94
70314;BME280;57725;47.526;18.986;2022-09-09T09:16:58;99623.16;;;20.15;84.08
70314;BME280;57725;47.526;18.986;2022-09-09T09:19:24;99627.50;;;20.16;84.25
70314;BME280;57725;47.526;18.986;2022-09-09T09:22:04;99621.34;;;20.16;83.79
70314;BME280;57725;47.526;18.986;2022-09-09T09:27:15;99615.09;;;20.17;84.01
70314;BME280;57725;47.526;18.986;2022-09-09T09:29:48;99614.09;;;20.18;83.63
70314;BME280;57725;47.526;18.986;2022-09-09T09:32:18;99606.16;;;20.18;83.99
70314;BME280;57725;47.526;18.986;2022-09-09T09:34:51;99603.50;;;20.18;83.91
70314;BME280;57725;47.526;18.986;2022-09-09T09:37:26;99603.50;;;20.18;83.77
70314;BME280;57725;47.526;18.986;2022-09-09T09:39:53;99594.09;;;20.14;83.93
70314;BME280;57725;47.526;18.986;2022-09-09T09:42:19;99593.72;;;20.18;83.69
70314;BME280;57725;47.526;18.986;2022-09-09T09:44:47;99595.53;;;20.18;83.64
70314;BME280;57725;47.526;18.986;2022-09-09T09:47:17;99597.06;;;20.20;83.87
70314;BME280;57725;47.526;18.986;2022-09-09T09:49:56;99603.22;;;20.21;83.74
70314;BME280;57725;47.526;18.986;2022-09-09T09:52:25;99605.88;;;20.21;83.81
70314;BME280;57725;47.526;18.986;2022-09-09T09:54:53;99608.50;;;20.21;83.64
70314;BME280;57725;47.526;18.986;2022-09-09T09:57:24;99613.69;;;20.22;84.03
70314;BME280;57725;47.526;18.986;2022-09-09T10:00:20;99616.34;;;20.22;83.86
70314;BME280;57725;47.526;18.986;2022-09-09T10:02:47;99616.47;;;20.21;83.85
70314;BME280;57725;47.526;18.986;2022-09-09T10:05:14;99615.38;;;20.23;83.66
70314;BME280;57725;47.526;18.986;2022-09-09T10:07:40;99607.41;;;20.23;83.53
70314;BME280;57725;47.526;18.986;2022-09-09T10:10:13;99594.97;;;20.24;83.61
70314;BME280;57725;47.526;18.986;2022-09-09T10:15:28;99604.63;;;20.25;83.55
70314;BME280;57725;47.526;18.986;2022-09-09T10:29:09;99601.72;;;20.28;83.80
70314;BME280;57725;47.526;18.986;2022-09-09T10:31:49;99601.59;;;20.30;83.61
70314;BME280;57725;47.526;18.986;2022-09-09T10:40:25;99599.78;;;20.30;83.66
70314;BME280;57725;47.526;18.986;2022-09-09T10:43:01;99600.47;;;20.32;83.34
70314;BME280;57725;47.526;18.986;2022-09-09T10:48:36;99595.16;;;20.32;83.60
70314;BME280;57725;47.526;18.986;2022-09-09T10:53:52;99599.47;;;20.33;83.30
70314;BME280;57725;47.526;18.986;2022-09-09T10:56:24;99597.69;;;20.34;83.51
70314;BME280;57725;47.526;18.986;2022-09-09T10:58:55;99593.34;;;20.33;83.50
70314;BME280;57725;47.526;18.986;2022-09-09T11:01:25;99602.00;;;20.35;83.23
70314;BME280;57725;47.526;18.986;2022-09-09T11:04:13;99601.06;;;20.36;83.37
70314;BME280;57725;47.526;18.986;2022-09-09T11:06:44;99594.91;;;20.35;83.11
70314;BME280;57725;47.526;18.986;2022-09-09T11:09:22;99587.06;;;20.34;83.09
70314;BME280;57725;47.526;18.986;2022-09-09T11:11:55;99595.63;;;20.37;83.25
70314;BME280;57725;47.526;18.986;2022-09-09T11:14:46;99590.31;;;20.37;83.25
70314;BME280;57725;47.526;18.986;2022-09-09T11:17:42;99591.16;;;20.38;83.23
70314;BME280;57725;47.526;18.986;2022-09-09T11:20:14;99583.19;;;20.38;83.22
70314;BME280;57725;47.526;18.986;2022-09-09T11:22:52;99573.41;;;20.38;83.05
70314;BME280;57725;47.526;18.986;2022-09-09T11:25:32;99581.25;;;20.40;83.18
70314;BME280;57725;47.526;18.986;2022-09-09T11:31:09;99583.06;;;20.39;82.99
70314;BME280;57725;47.526;18.986;2022-09-09T11:41:42;99589.78;;;20.43;83.03
70314;BME280;57725;47.526;18.986;2022-09-09T11:44:12;99585.44;;;20.42;82.75
70314;BME280;57725;47.526;18.986;2022-09-09T11:46:46;99568.69;;;20.42;82.85
70314;BME280;57725;47.526;18.986;2022-09-09T11:49:29;99574.69;;;20.44;82.68
70314;BME280;57725;47.526;18.986;2022-09-09T11:51:58;99578.19;;;20.44;82.92
70314;BME280;57725;47.526;18.986;2022-09-09T11:56:57;99581.66;;;20.45;82.67
70314;BME280;57725;47.526;18.986;2022-09-09T11:59:27;99578.88;;;20.46;82.64
70314;BME280;57725;47.526;18.986;2022-09-09T12:02:23;99585.03;;;20.47;82.66
70314;BME280;57725;47.526;18.986;2022-09-09T12:05:00;99571.75;;;20.47;82.87
70314;BME280;57725;47.526;18.986;2022-09-09T12:07:40;99571.63;;;20.48;82.77
70314;BME280;57725;47.526;18.986;2022-09-09T12:12:37;99585.88;;;20.47;82.64
70314;BME280;57725;47.526;18.986;2022-09-09T12:15:28;99602.66;;;20.48;82.75
70314;BME280;57725;47.526;18.986;2022-09-09T12:17:58;99600.84;;;20.48;82.76
70314;BME280;57725;47.526;18.986;2022-09-09T12:23:31;99588.41;;;20.49;82.77
70314;BME280;57725;47.526;18.986;2022-09-09T12:26:06;99592.03;;;20.48;82.56
70314;BME280;57725;47.526;18.986;2022-09-09T12:29:09;99584.78;;;20.50;82.56
70314;BME280;57725;47.526;18.986;2022-09-09T12:32:22;99570.66;;;20.49;82.47
70314;BME280;57725;47.526;18.986;2022-09-09T12:37:37;99565.22;;;20.51;82.68
70314;BME280;57725;47.526;18.986;2022-09-09T12:40:05;99559.06;;;20.50;82.73
70314;BME280;57725;47.526;18.986;2022-09-09T12:42:39;99564.25;;;20.52;82.37
70314;BME280;57725;47.526;18.986;2022-09-09T12:45:18;99558.09;;;20.51;82.43
70314;BME280;57725;47.526;18.986;2022-09-09T12:47:57;99558.94;;;20.52;82.68
70314;BME280;57725;47.526;18.986;2022-09-09T12:50:29;99550.00;;;20.53;82.37
70314;BME280;57725;47.526;18.986;2022-09-09T12:53:29;99541.88;;;20.54;82.45
70314;BME280;57725;47.526;18.986;2022-09-09T12:56:00;99542.69;;;20.55;82.34
70314;BME280;57725;47.526;18.986;2022-09-09T12:58:29;99540.88;;;20.55;82.15
70314;BME280;57725;47.526;18.986;2022-09-09T13:00:58;99540.03;;;20.55;82.17
70314;BME280;57725;47.526;18.986;2022-09-09T13:03:25;99528.44;;;20.56;82.50
70314;BME280;57725;47.526;18.986;2022-09-09T13:05:52;99525.78;;;20.56;82.25
70314;BME280;57725;47.526;18.986;2022-09-09T13:08:19;99522.16;;;20.57;82.40
70314;BME280;57725;47.526;18.986;2022-09-09T13:10:50;99515.19;;;20.56;82.02
70314;BME280;57725;47.526;18.986;2022-09-09T13:13:26;99514.19;;;20.57;82.22
70314;BME280;57725;47.526;18.986;2022-09-09T13:15:59;99508.03;;;20.56;82.38
70314;BME280;57725;47.526;18.986;2022-09-09T13:18:33;99512.38;;;20.57;81.81
70314;BME280;57725;47.526;18.986;2022-09-09T13:21:00;99512.25;;;20.59;82.32
70314;BME280;57725;47.526;18.986;2022-09-09T13:23:34;99506.09;;;20.58;82.42
70314;BME280;57725;47.526;18.986;2022-09-09T13:26:05;99498.97;;;20.59;82.02
70314;BME280;57725;47.526;18.986;2022-09-09T13:28:35;99496.31;;;20.59;82.32
70314;BME280;57725;47.526;18.986;2022-09-09T13:31:02;99504.28;;;20.59;81.60
70314;BME280;57725;47.526;18.986;2022-09-09T13:33:39;99507.78;;;20.59;81.78
70314;BME280;57725;47.526;18.986;2022-09-09T13:36:12;99492.81;;;20.58;81.84
70314;BME280;57725;47.526;18.986;2022-09-09T13:38:53;99494.50;;;20.59;81.81
70314;BME280;57725;47.526;18.986;2022-09-09T13:41:24;99498.00;;;20.60;81.64
70314;BME280;57725;47.526;18.986;2022-09-09T13:43:51;99502.34;;;20.61;81.70
70314;BME280;57725;47.526;18.986;2022-09-09T13:49:19;99495.22;;;20.62;81.69
70314;BME280;57725;47.526;18.986;2022-09-09T13:51:49;99493.41;;;20.62;81.81
70314;BME280;57725;47.526;18.986;2022-09-09T13:54:18;99491.44;;;20.64;81.55
70314;BME280;57725;47.526;18.986;2022-09-09T13:56:44;99479.97;;;20.64;81.40
70314;BME280;57725;47.526;18.986;2022-09-09T13:59:17;99473.13;;;20.61;81.40
70314;BME280;57725;47.526;18.986;2022-09-09T14:01:49;99474.66;;;20.64;81.31
70314;BME280;57725;47.526;18.986;2022-09-09T14:04:17;99478.00;;;20.66;81.71
70314;BME280;57725;47.526;18.986;2022-09-09T14:06:45;99456.09;;;20.64;81.59
70314;BME280;57725;47.526;18.986;2022-09-09T14:09:13;99462.91;;;20.66;81.23
70314;BME280;57725;47.526;18.986;2022-09-09T14:11:40;99451.44;;;20.66;81.35
70314;BME280;57725;47.526;18.986;2022-09-09T14:14:05;99454.94;;;20.66;81.26
70314;BME280;57725;47.526;18.986;2022-09-09T14:16:33;99458.44;;;20.67;81.42
70314;BME280;57725;47.526;18.986;2022-09-09T14:19:01;99451.31;;;20.67;81.65
70314;BME280;57725;47.526;18.986;2022-09-09T14:21:27;99450.47;;;20.67;81.37
70314;BME280;57725;47.526;18.986;2022-09-09T14:23:57;99450.31;;;20.68;81.50
70314;BME280;57725;47.526;18.986;2022-09-09T14:26:29;99448.50;;;20.69;81.56
70314;BME280;57725;47.526;18.986;2022-09-09T14:28:55;99453.13;;;20.67;81.47
70314;BME280;57725;47.526;18.986;2022-09-09T14:31:21;99456.47;;;20.69;81.32
70314;BME280;57725;47.526;18.986;2022-09-09T14:33:47;99457.31;;;20.69;81.28
70314;BME280;57725;47.526;18.986;2022-09-09T14:36:12;99453.81;;;20.69;81.17
70314;BME280;57725;47.526;18.986;2022-09-09T14:38:38;99456.47;;;20.69;81.38
70314;BME280;57725;47.526;18.986;2022-09-09T14:41:09;99449.34;;;20.69;81.41
70314;BME280;57725;47.526;18.986;2022-09-09T14:43:38;99447.53;;;20.70;81.48
70314;BME280;57725;47.526;18.986;2022-09-09T14:46:05;99449.22;;;20.71;81.15
70314;BME280;57725;47.526;18.986;2022-09-09T14:48:34;99449.22;;;20.71;81.20
70314;BME280;57725;47.526;18.986;2022-09-09T14:51:12;99450.06;;;20.71;81.16
70314;BME280;57725;47.526;18.986;2022-09-09T14:53:40;99456.22;;;20.72;81.22
70314;BME280;57725;47.526;18.986;2022-09-09T14:56:09;99450.06;;;20.71;81.24
70314;BME280;57725;47.526;18.986;2022-09-09T14:58:35;99450.06;;;20.71;80.97
70314;BME280;57725;47.526;18.986;2022-09-09T15:01:13;99457.88;;;20.73;81.28
70314;BME280;57725;47.526;18.986;2022-09-09T15:03:42;99452.72;;;20.71;81.28
70314;BME280;57725;47.526;18.986;2022-09-09T15:06:13;99459.72;;;20.72;81.35